sensor_id;sensor_type;location;lat;lon;timestamp;P1;durP1;ratioP1;P2;durP2;ratioP2
54831;SDS011;40730;53.068;6.572;2023-01-05T00:00:00;23.58;;;2.38;;
54831;SDS011;40730;53.068;6.572;2023-01-05T00:02:27;25.83;;;2.50;;
54831;SDS011;40730;53.068;6.572;2023-01-05T00:04:53;22.13;;;2.10;;
54831;SDS011;40730;53.068;6.572;2023-01-05T00:07:19;20.55;;;1.85;;
54831;SDS011;40730;53.068;6.572;2023-01-05T00:09:44;18.85;;;1.60;;
54831;SDS011;40730;53.068;6.572;2023-01-05T00:12:10;25.75;;;2.42;;
54831;SDS011;40730;53.068;6.572;2023-01-05T00:14:54;17.80;;;1.83;;
54831;SDS011;40730;53.068;6.572;2023-01-05T00:17:38;24.65;;;2.78;;
54831;SDS011;40730;53.068;6.572;2023-01-05T00:20:22;29.30;;;3.03;;
54831;SDS011;40730;53.068;6.572;2023-01-05T00:23:07;21.63;;;1.92;;
54831;SDS011;40730;53.068;6.572;2023-01-05T00:25:36;24.80;;;3.92;;
54831;SDS011;40730;53.068;6.572;2023-01-05T00:28:03;24.80;;;2.45;;
54831;SDS011;40730;53.068;6.572;2023-01-05T00:30:31;20.02;;;2.55;;
54831;SDS011;40730;53.068;6.572;2023-01-05T00:33:08;31.98;;;4.93;;
54831;SDS011;40730;53.068;6.572;2023-01-05T00:35:35;26.55;;;2.60;;
54831;SDS011;40730;53.068;6.572;2023-01-05T00:38:02;26.20;;;3.25;;
54831;SDS011;40730;53.068;6.572;2023-01-05T00:40:28;28.60;;;3.83;;
54831;SDS011;40730;53.068;6.572;2023-01-05T00:42:54;33.35;;;3.92;;
54831;SDS011;40730;53.068;6.572;2023-01-05T00:45:20;24.15;;;2.97;;
54831;SDS011;40730;53.068;6.572;2023-01-05T00:47:46;31.02;;;2.90;;
54831;SDS011;40730;53.068;6.572;2023-01-05T00:50:13;27.50;;;3.60;;
54831;SDS011;40730;53.068;6.572;2023-01-05T00:52:40;41.70;;;4.53;;
54831;SDS011;40730;53.068;6.572;2023-01-05T00:55:07;25.88;;;2.45;;
54831;SDS011;40730;53.068;6.572;2023-01-05T00:57:33;22.80;;;2.72;;
54831;SDS011;40730;53.068;6.572;2023-01-05T00:59:58;31.77;;;2.63;;
54831;SDS011;40730;53.068;6.572;2023-01-05T01:02:26;24.98;;;2.95;;
54831;SDS011;40730;53.068;6.572;2023-01-05T01:04:51;29.30;;;4.22;;
54831;SDS011;40730;53.068;6.572;2023-01-05T01:07:17;32.45;;;3.05;;
54831;SDS011;40730;53.068;6.572;2023-01-05T01:09:42;28.13;;;3.50;;
54831;SDS011;40730;53.068;6.572;2023-01-05T01:12:08;27.67;;;2.90;;
54831;SDS011;40730;53.068;6.572;2023-01-05T01:14:34;23.77;;;2.25;;
54831;SDS011;40730;53.068;6.572;2023-01-05T01:17:00;20.05;;;1.88;;
54831;SDS011;40730;53.068;6.572;2023-01-05T01:19:26;21.35;;;1.73;;
54831;SDS011;40730;53.068;6.572;2023-01-05T01:21:52;30.02;;;2.50;;
54831;SDS011;40730;53.068;6.572;2023-01-05T01:24:19;25.88;;;3.20;;
54831;SDS011;40730;53.068;6.572;2023-01-05T01:26:49;22.65;;;2.75;;
54831;SDS011;40730;53.068;6.572;2023-01-05T01:29:15;18.05;;;2.40;;
54831;SDS011;40730;53.068;6.572;2023-01-05T01:31:42;21.27;;;2.33;;
54831;SDS011;40730;53.068;6.572;2023-01-05T01:34:08;24.15;;;2.60;;
54831;SDS011;40730;53.068;6.572;2023-01-05T01:36:33;22.45;;;2.45;;
54831;SDS011;40730;53.068;6.572;2023-01-05T01:38:59;25.25;;;2.38;;
54831;SDS011;40730;53.068;6.572;2023-01-05T01:41:25;22.25;;;3.55;;
54831;SDS011;40730;53.068;6.572;2023-01-05T01:43:51;26.65;;;2.88;;
54831;SDS011;40730;53.068;6.572;2023-01-05T01:46:18;25.55;;;3.05;;
54831;SDS011;40730;53.068;6.572;2023-01-05T01:48:50;20.02;;;2.10;;
54831;SDS011;40730;53.068;6.572;2023-01-05T01:51:23;19.48;;;2.38;;
54831;SDS011;40730;53.068;6.572;2023-01-05T01:53:53;26.92;;;3.25;;
54831;SDS011;40730;53.068;6.572;2023-01-05T01:56:22;28.10;;;3.40;;
54831;SDS011;40730;53.068;6.572;2023-01-05T01:58:50;23.33;;;2.55;;
54831;SDS011;40730;53.068;6.572;2023-01-05T02:01:16;30.13;;;2.90;;
54831;SDS011;40730;53.068;6.572;2023-01-05T02:03:42;17.75;;;2.03;;
54831;SDS011;40730;53.068;6.572;2023-01-05T02:06:08;22.02;;;2.13;;
54831;SDS011;40730;53.068;6.572;2023-01-05T02:08:34;24.20;;;2.85;;
54831;SDS011;40730;53.068;6.572;2023-01-05T02:11:12;23.08;;;3.22;;
54831;SDS011;40730;53.068;6.572;2023-01-05T02:17:03;23.55;;;2.22;;
54831;SDS011;40730;53.068;6.572;2023-01-05T02:22:58;23.25;;;2.80;;
54831;SDS011;40730;53.068;6.572;2023-01-05T02:30:58;29.38;;;3.65;;
54831;SDS011;40730;53.068;6.572;2023-01-05T02:39:13;24.35;;;3.60;;
54831;SDS011;40730;53.068;6.572;2023-01-05T02:41:43;24.40;;;2.70;;
54831;SDS011;40730;53.068;6.572;2023-01-05T02:44:16;29.95;;;2.97;;
54831;SDS011;40730;53.068;6.572;2023-01-05T02:46:43;20.95;;;3.17;;
54831;SDS011;40730;53.068;6.572;2023-01-05T02:49:10;23.35;;;2.92;;
54831;SDS011;40730;53.068;6.572;2023-01-05T02:51:39;25.55;;;3.30;;
54831;SDS011;40730;53.068;6.572;2023-01-05T02:56:45;24.80;;;4.07;;
54831;SDS011;40730;53.068;6.572;2023-01-05T02:59:26;27.80;;;3.08;;
54831;SDS011;40730;53.068;6.572;2023-01-05T03:02:01;22.45;;;3.40;;
54831;SDS011;40730;53.068;6.572;2023-01-05T03:04:36;24.45;;;2.70;;
54831;SDS011;40730;53.068;6.572;2023-01-05T03:07:12;26.23;;;2.70;;
54831;SDS011;40730;53.068;6.572;2023-01-05T03:09:42;23.13;;;3.10;;
54831;SDS011;40730;53.068;6.572;2023-01-05T03:12:14;31.45;;;3.28;;
54831;SDS011;40730;53.068;6.572;2023-01-05T03:15:15;32.33;;;5.25;;
54831;SDS011;40730;53.068;6.572;2023-01-05T03:17:47;30.35;;;2.67;;
54831;SDS011;40730;53.068;6.572;2023-01-05T03:20:16;25.58;;;3.63;;
54831;SDS011;40730;53.068;6.572;2023-01-05T03:22:45;22.90;;;2.53;;
54831;SDS011;40730;53.068;6.572;2023-01-05T03:25:32;24.63;;;3.42;;
54831;SDS011;40730;53.068;6.572;2023-01-05T03:28:20;21.40;;;2.20;;
54831;SDS011;40730;53.068;6.572;2023-01-05T03:31:09;25.88;;;2.08;;
54831;SDS011;40730;53.068;6.572;2023-01-05T03:36:53;23.77;;;2.60;;
54831;SDS011;40730;53.068;6.572;2023-01-05T03:39:24;24.33;;;2.88;;
54831;SDS011;40730;53.068;6.572;2023-01-05T03:41:51;24.65;;;3.10;;
54831;SDS011;40730;53.068;6.572;2023-01-05T03:44:18;30.35;;;3.95;;
54831;SDS011;40730;53.068;6.572;2023-01-05T03:46:44;28.60;;;3.08;;
54831;SDS011;40730;53.068;6.572;2023-01-05T03:49:10;28.55;;;3.45;;
54831;SDS011;40730;53.068;6.572;2023-01-05T03:51:36;24.20;;;2.80;;
54831;SDS011;40730;53.068;6.572;2023-01-05T03:54:01;30.25;;;4.10;;
54831;SDS011;40730;53.068;6.572;2023-01-05T03:56:27;28.27;;;2.88;;
54831;SDS011;40730;53.068;6.572;2023-01-05T03:58:53;26.45;;;2.65;;
54831;SDS011;40730;53.068;6.572;2023-01-05T04:01:18;19.15;;;2.60;;
54831;SDS011;40730;53.068;6.572;2023-01-05T04:03:44;25.50;;;2.50;;
54831;SDS011;40730;53.068;6.572;2023-01-05T04:06:09;26.95;;;3.05;;
54831;SDS011;40730;53.068;6.572;2023-01-05T04:08:35;29.70;;;3.80;;
54831;SDS011;40730;53.068;6.572;2023-01-05T04:11:11;29.60;;;4.10;;
54831;SDS011;40730;53.068;6.572;2023-01-05T04:13:38;22.13;;;2.50;;
54831;SDS011;40730;53.068;6.572;2023-01-05T04:16:04;28.40;;;3.05;;
54831;SDS011;40730;53.068;6.572;2023-01-05T04:18:30;27.83;;;3.67;;
54831;SDS011;40730;53.068;6.572;2023-01-05T04:20:55;25.42;;;2.78;;
54831;SDS011;40730;53.068;6.572;2023-01-05T04:23:21;29.92;;;2.72;;
54831;SDS011;40730;53.068;6.572;2023-01-05T04:25:46;23.85;;;3.78;;
54831;SDS011;40730;53.068;6.572;2023-01-05T04:28:12;24.77;;;2.72;;
54831;SDS011;40730;53.068;6.572;2023-01-05T04:30:38;23.38;;;3.00;;
54831;SDS011;40730;53.068;6.572;2023-01-05T04:33:03;22.10;;;2.22;;
54831;SDS011;40730;53.068;6.572;2023-01-05T04:35:29;22.95;;;2.83;;
54831;SDS011;40730;53.068;6.572;2023-01-05T04:37:54;21.98;;;3.05;;
54831;SDS011;40730;53.068;6.572;2023-01-05T04:40:20;28.23;;;4.50;;
54831;SDS011;40730;53.068;6.572;2023-01-05T04:42:46;28.15;;;2.92;;
54831;SDS011;40730;53.068;6.572;2023-01-05T04:45:11;21.13;;;2.00;;
54831;SDS011;40730;53.068;6.572;2023-01-05T04:47:37;23.02;;;3.30;;
54831;SDS011;40730;53.068;6.572;2023-01-05T04:50:03;33.88;;;4.45;;
54831;SDS011;40730;53.068;6.572;2023-01-05T04:52:29;27.23;;;3.97;;
54831;SDS011;40730;53.068;6.572;2023-01-05T04:54:54;21.42;;;2.20;;
54831;SDS011;40730;53.068;6.572;2023-01-05T04:57:20;29.35;;;3.38;;
54831;SDS011;40730;53.068;6.572;2023-01-05T04:59:45;23.98;;;3.08;;
54831;SDS011;40730;53.068;6.572;2023-01-05T05:02:11;24.27;;;2.58;;
54831;SDS011;40730;53.068;6.572;2023-01-05T05:04:37;24.90;;;2.85;;
54831;SDS011;40730;53.068;6.572;2023-01-05T05:07:02;23.45;;;2.25;;
54831;SDS011;40730;53.068;6.572;2023-01-05T05:09:28;27.63;;;3.28;;
54831;SDS011;40730;53.068;6.572;2023-01-05T05:11:53;18.58;;;2.40;;
54831;SDS011;40730;53.068;6.572;2023-01-05T05:14:19;22.17;;;2.40;;
54831;SDS011;40730;53.068;6.572;2023-01-05T05:16:44;27.35;;;3.67;;
54831;SDS011;40730;53.068;6.572;2023-01-05T05:19:10;23.63;;;2.30;;
54831;SDS011;40730;53.068;6.572;2023-01-05T05:21:36;27.42;;;4.65;;
54831;SDS011;40730;53.068;6.572;2023-01-05T05:24:01;24.45;;;3.17;;
54831;SDS011;40730;53.068;6.572;2023-01-05T05:26:27;20.77;;;2.83;;
54831;SDS011;40730;53.068;6.572;2023-01-05T05:28:52;19.95;;;1.88;;
54831;SDS011;40730;53.068;6.572;2023-01-05T05:31:18;27.27;;;2.65;;
54831;SDS011;40730;53.068;6.572;2023-01-05T05:33:44;30.77;;;4.95;;
54831;SDS011;40730;53.068;6.572;2023-01-05T05:36:09;47.92;;;3.63;;
54831;SDS011;40730;53.068;6.572;2023-01-05T05:38:35;21.30;;;3.17;;
54831;SDS011;40730;53.068;6.572;2023-01-05T05:41:00;18.42;;;2.33;;
54831;SDS011;40730;53.068;6.572;2023-01-05T05:43:26;32.08;;;3.10;;
54831;SDS011;40730;53.068;6.572;2023-01-05T05:45:52;23.55;;;2.58;;
54831;SDS011;40730;53.068;6.572;2023-01-05T05:48:17;27.25;;;4.15;;
54831;SDS011;40730;53.068;6.572;2023-01-05T05:50:43;26.00;;;3.03;;
54831;SDS011;40730;53.068;6.572;2023-01-05T05:53:09;22.75;;;2.50;;
54831;SDS011;40730;53.068;6.572;2023-01-05T05:55:35;30.45;;;4.35;;
54831;SDS011;40730;53.068;6.572;2023-01-05T05:58:00;24.42;;;3.20;;
54831;SDS011;40730;53.068;6.572;2023-01-05T06:00:26;29.20;;;3.20;;
54831;SDS011;40730;53.068;6.572;2023-01-05T06:02:52;23.38;;;2.92;;
54831;SDS011;40730;53.068;6.572;2023-01-05T06:05:17;33.80;;;3.50;;
54831;SDS011;40730;53.068;6.572;2023-01-05T06:07:43;28.20;;;2.92;;
54831;SDS011;40730;53.068;6.572;2023-01-05T06:10:09;27.85;;;3.58;;
54831;SDS011;40730;53.068;6.572;2023-01-05T06:12:34;26.63;;;2.85;;
54831;SDS011;40730;53.068;6.572;2023-01-05T06:15:00;22.02;;;3.17;;
54831;SDS011;40730;53.068;6.572;2023-01-05T06:17:26;23.92;;;3.67;;
54831;SDS011;40730;53.068;6.572;2023-01-05T06:19:51;21.65;;;2.05;;
54831;SDS011;40730;53.068;6.572;2023-01-05T06:22:17;24.48;;;2.63;;
54831;SDS011;40730;53.068;6.572;2023-01-05T06:24:42;24.25;;;2.20;;
54831;SDS011;40730;53.068;6.572;2023-01-05T06:27:08;25.20;;;3.42;;
54831;SDS011;40730;53.068;6.572;2023-01-05T06:29:34;28.63;;;2.63;;
54831;SDS011;40730;53.068;6.572;2023-01-05T06:32:00;25.25;;;2.58;;
54831;SDS011;40730;53.068;6.572;2023-01-05T06:34:26;28.90;;;4.78;;
54831;SDS011;40730;53.068;6.572;2023-01-05T06:36:51;25.08;;;2.38;;
54831;SDS011;40730;53.068;6.572;2023-01-05T06:39:18;22.95;;;3.08;;
54831;SDS011;40730;53.068;6.572;2023-01-05T06:41:43;30.45;;;3.35;;
54831;SDS011;40730;53.068;6.572;2023-01-05T06:44:09;24.35;;;2.35;;
54831;SDS011;40730;53.068;6.572;2023-01-05T06:46:35;27.42;;;2.63;;
54831;SDS011;40730;53.068;6.572;2023-01-05T06:49:00;27.55;;;3.35;;
54831;SDS011;40730;53.068;6.572;2023-01-05T06:51:26;33.35;;;3.13;;
54831;SDS011;40730;53.068;6.572;2023-01-05T06:53:52;20.98;;;2.60;;
54831;SDS011;40730;53.068;6.572;2023-01-05T06:56:17;25.77;;;2.45;;
54831;SDS011;40730;53.068;6.572;2023-01-05T06:58:43;21.88;;;2.17;;
54831;SDS011;40730;53.068;6.572;2023-01-05T07:01:08;24.90;;;4.55;;
54831;SDS011;40730;53.068;6.572;2023-01-05T07:03:34;29.05;;;3.40;;
54831;SDS011;40730;53.068;6.572;2023-01-05T07:05:59;22.85;;;2.70;;
54831;SDS011;40730;53.068;6.572;2023-01-05T07:08:25;21.65;;;2.08;;
54831;SDS011;40730;53.068;6.572;2023-01-05T07:10:50;28.60;;;3.90;;
54831;SDS011;40730;53.068;6.572;2023-01-05T07:13:16;24.25;;;3.17;;
54831;SDS011;40730;53.068;6.572;2023-01-05T07:15:42;28.05;;;2.78;;
54831;SDS011;40730;53.068;6.572;2023-01-05T07:18:07;17.27;;;2.47;;
54831;SDS011;40730;53.068;6.572;2023-01-05T07:20:33;19.83;;;2.38;;
54831;SDS011;40730;53.068;6.572;2023-01-05T07:22:58;18.20;;;4.15;;
54831;SDS011;40730;53.068;6.572;2023-01-05T07:25:24;27.90;;;2.90;;
54831;SDS011;40730;53.068;6.572;2023-01-05T07:27:55;20.50;;;2.55;;
54831;SDS011;40730;53.068;6.572;2023-01-05T07:30:21;24.90;;;1.95;;
54831;SDS011;40730;53.068;6.572;2023-01-05T07:32:46;11.88;;;1.98;;
54831;SDS011;40730;53.068;6.572;2023-01-05T07:35:12;16.08;;;1.95;;
54831;SDS011;40730;53.068;6.572;2023-01-05T07:37:37;19.20;;;2.22;;
54831;SDS011;40730;53.068;6.572;2023-01-05T07:40:03;22.73;;;2.50;;
54831;SDS011;40730;53.068;6.572;2023-01-05T07:42:29;24.55;;;2.78;;
54831;SDS011;40730;53.068;6.572;2023-01-05T07:44:55;20.10;;;1.48;;
54831;SDS011;40730;53.068;6.572;2023-01-05T07:47:21;22.85;;;1.98;;
54831;SDS011;40730;53.068;6.572;2023-01-05T07:49:46;21.35;;;2.60;;
54831;SDS011;40730;53.068;6.572;2023-01-05T07:52:12;15.73;;;1.67;;
54831;SDS011;40730;53.068;6.572;2023-01-05T07:54:38;18.55;;;1.88;;
54831;SDS011;40730;53.068;6.572;2023-01-05T07:57:04;21.35;;;2.38;;
54831;SDS011;40730;53.068;6.572;2023-01-05T07:59:29;22.83;;;2.42;;
54831;SDS011;40730;53.068;6.572;2023-01-05T08:01:55;16.10;;;3.95;;
54831;SDS011;40730;53.068;6.572;2023-01-05T08:04:20;21.33;;;1.90;;
54831;SDS011;40730;53.068;6.572;2023-01-05T08:06:46;19.67;;;2.17;;
54831;SDS011;40730;53.068;6.572;2023-01-05T08:09:12;17.05;;;2.00;;
54831;SDS011;40730;53.068;6.572;2023-01-05T08:11:56;18.70;;;1.25;;
54831;SDS011;40730;53.068;6.572;2023-01-05T08:14:21;18.13;;;1.55;;
54831;SDS011;40730;53.068;6.572;2023-01-05T08:16:47;16.67;;;1.63;;
54831;SDS011;40730;53.068;6.572;2023-01-05T08:19:13;14.77;;;1.40;;
54831;SDS011;40730;53.068;6.572;2023-01-05T08:21:38;19.92;;;1.70;;
54831;SDS011;40730;53.068;6.572;2023-01-05T08:24:04;21.95;;;2.17;;
54831;SDS011;40730;53.068;6.572;2023-01-05T08:26:30;15.57;;;2.50;;
54831;SDS011;40730;53.068;6.572;2023-01-05T08:28:55;21.65;;;2.95;;
54831;SDS011;40730;53.068;6.572;2023-01-05T08:31:23;18.17;;;1.80;;
54831;SDS011;40730;53.068;6.572;2023-01-05T08:33:50;16.50;;;1.50;;
54831;SDS011;40730;53.068;6.572;2023-01-05T08:36:19;24.27;;;1.92;;
54831;SDS011;40730;53.068;6.572;2023-01-05T08:38:50;20.80;;;4.30;;
54831;SDS011;40730;53.068;6.572;2023-01-05T08:41:17;23.30;;;2.17;;
54831;SDS011;40730;53.068;6.572;2023-01-05T08:43:52;17.67;;;1.98;;
54831;SDS011;40730;53.068;6.572;2023-01-05T08:46:20;18.20;;;1.55;;
54831;SDS011;40730;53.068;6.572;2023-01-05T08:48:48;26.05;;;2.60;;
54831;SDS011;40730;53.068;6.572;2023-01-05T08:51:15;29.90;;;2.63;;
54831;SDS011;40730;53.068;6.572;2023-01-05T08:53:41;18.67;;;2.20;;
54831;SDS011;40730;53.068;6.572;2023-01-05T08:56:06;21.92;;;2.17;;
54831;SDS011;40730;53.068;6.572;2023-01-05T08:58:34;20.73;;;2.50;;
54831;SDS011;40730;53.068;6.572;2023-01-05T09:01:05;20.30;;;2.35;;
54831;SDS011;40730;53.068;6.572;2023-01-05T09:03:34;20.63;;;2.10;;
54831;SDS011;40730;53.068;6.572;2023-01-05T09:06:01;14.90;;;1.67;;
54831;SDS011;40730;53.068;6.572;2023-01-05T09:08:28;16.17;;;1.50;;
54831;SDS011;40730;53.068;6.572;2023-01-05T09:11:04;25.80;;;1.98;;
54831;SDS011;40730;53.068;6.572;2023-01-05T09:13:34;25.70;;;2.30;;
54831;SDS011;40730;53.068;6.572;2023-01-05T09:16:06;16.40;;;2.05;;
54831;SDS011;40730;53.068;6.572;2023-01-05T09:18:34;19.20;;;1.88;;
54831;SDS011;40730;53.068;6.572;2023-01-05T09:21:00;19.00;;;2.78;;
54831;SDS011;40730;53.068;6.572;2023-01-05T09:23:25;18.20;;;1.77;;
54831;SDS011;40730;53.068;6.572;2023-01-05T09:25:51;23.52;;;2.22;;
54831;SDS011;40730;53.068;6.572;2023-01-05T09:28:17;20.38;;;2.50;;
54831;SDS011;40730;53.068;6.572;2023-01-05T09:30:43;19.45;;;2.13;;
54831;SDS011;40730;53.068;6.572;2023-01-05T09:33:08;25.98;;;2.03;;
54831;SDS011;40730;53.068;6.572;2023-01-05T09:35:34;16.23;;;2.22;;
54831;SDS011;40730;53.068;6.572;2023-01-05T09:37:59;22.58;;;1.95;;
54831;SDS011;40730;53.068;6.572;2023-01-05T09:40:25;16.48;;;2.03;;
54831;SDS011;40730;53.068;6.572;2023-01-05T09:42:52;18.23;;;2.10;;
54831;SDS011;40730;53.068;6.572;2023-01-05T09:45:25;20.55;;;1.77;;
54831;SDS011;40730;53.068;6.572;2023-01-05T09:47:52;20.38;;;2.03;;
54831;SDS011;40730;53.068;6.572;2023-01-05T09:50:23;15.63;;;1.80;;
54831;SDS011;40730;53.068;6.572;2023-01-05T09:52:52;18.60;;;1.77;;
54831;SDS011;40730;53.068;6.572;2023-01-05T09:55:22;17.75;;;2.00;;
54831;SDS011;40730;53.068;6.572;2023-01-05T09:57:52;16.88;;;1.63;;
54831;SDS011;40730;53.068;6.572;2023-01-05T10:00:21;19.17;;;1.80;;
54831;SDS011;40730;53.068;6.572;2023-01-05T10:02:58;17.63;;;2.50;;
54831;SDS011;40730;53.068;6.572;2023-01-05T10:05:30;22.17;;;3.47;;
54831;SDS011;40730;53.068;6.572;2023-01-05T10:08:26;21.20;;;2.17;;
54831;SDS011;40730;53.068;6.572;2023-01-05T10:13:58;19.83;;;2.00;;
54831;SDS011;40730;53.068;6.572;2023-01-05T10:16:30;29.00;;;2.20;;
54831;SDS011;40730;53.068;6.572;2023-01-05T10:18:56;18.85;;;1.90;;
54831;SDS011;40730;53.068;6.572;2023-01-05T10:21:35;21.27;;;2.35;;
54831;SDS011;40730;53.068;6.572;2023-01-05T10:24:37;19.15;;;1.45;;
54831;SDS011;40730;53.068;6.572;2023-01-05T10:27:40;16.17;;;1.50;;
54831;SDS011;40730;53.068;6.572;2023-01-05T10:32:41;23.50;;;3.42;;
54831;SDS011;40730;53.068;6.572;2023-01-05T10:38:04;24.00;;;2.28;;
54831;SDS011;40730;53.068;6.572;2023-01-05T10:40:41;25.63;;;1.80;;
54831;SDS011;40730;53.068;6.572;2023-01-05T10:43:38;13.10;;;1.27;;
54831;SDS011;40730;53.068;6.572;2023-01-05T10:46:23;18.52;;;2.33;;
54831;SDS011;40730;53.068;6.572;2023-01-05T10:48:49;25.52;;;3.58;;
54831;SDS011;40730;53.068;6.572;2023-01-05T10:51:15;13.57;;;2.35;;
54831;SDS011;40730;53.068;6.572;2023-01-05T10:53:42;16.25;;;1.27;;
54831;SDS011;40730;53.068;6.572;2023-01-05T10:58:38;20.83;;;1.63;;
54831;SDS011;40730;53.068;6.572;2023-01-05T11:01:25;24.85;;;2.75;;
54831;SDS011;40730;53.068;6.572;2023-01-05T11:03:55;19.17;;;1.50;;
54831;SDS011;40730;53.068;6.572;2023-01-05T11:06:46;18.55;;;1.30;;
54831;SDS011;40730;53.068;6.572;2023-01-05T11:11:42;21.92;;;1.75;;
54831;SDS011;40730;53.068;6.572;2023-01-05T11:14:16;24.70;;;1.75;;
54831;SDS011;40730;53.068;6.572;2023-01-05T11:16:48;15.15;;;1.23;;
54831;SDS011;40730;53.068;6.572;2023-01-05T11:19:17;18.30;;;1.77;;
54831;SDS011;40730;53.068;6.572;2023-01-05T11:21:46;11.15;;;1.13;;
54831;SDS011;40730;53.068;6.572;2023-01-05T11:24:32;9.07;;;0.68;;
54831;SDS011;40730;53.068;6.572;2023-01-05T11:26:59;12.07;;;0.95;;
54831;SDS011;40730;53.068;6.572;2023-01-05T11:29:27;8.43;;;0.60;;
54831;SDS011;40730;53.068;6.572;2023-01-05T11:37:02;5.85;;;0.38;;
54831;SDS011;40730;53.068;6.572;2023-01-05T11:44:57;9.93;;;1.50;;
54831;SDS011;40730;53.068;6.572;2023-01-05T11:47:32;5.95;;;0.55;;
54831;SDS011;40730;53.068;6.572;2023-01-05T11:50:05;10.95;;;2.17;;
54831;SDS011;40730;53.068;6.572;2023-01-05T11:52:46;9.45;;;1.08;;
54831;SDS011;40730;53.068;6.572;2023-01-05T11:55:31;12.20;;;0.70;;
54831;SDS011;40730;53.068;6.572;2023-01-05T12:09:15;7.95;;;0.75;;
54831;SDS011;40730;53.068;6.572;2023-01-05T12:17:15;11.00;;;1.67;;
54831;SDS011;40730;53.068;6.572;2023-01-05T12:22:31;14.52;;;1.38;;
54831;SDS011;40730;53.068;6.572;2023-01-05T12:28:03;16.58;;;1.67;;
54831;SDS011;40730;53.068;6.572;2023-01-05T12:31:01;13.82;;;1.50;;
54831;SDS011;40730;53.068;6.572;2023-01-05T12:36:16;17.00;;;2.78;;
54831;SDS011;40730;53.068;6.572;2023-01-05T12:38:56;16.33;;;0.98;;
54831;SDS011;40730;53.068;6.572;2023-01-05T12:42:15;16.15;;;1.52;;
54831;SDS011;40730;53.068;6.572;2023-01-05T12:52:45;11.63;;;1.27;;
54831;SDS011;40730;53.068;6.572;2023-01-05T12:55:17;15.27;;;1.58;;
54831;SDS011;40730;53.068;6.572;2023-01-05T12:57:49;14.25;;;1.35;;
54831;SDS011;40730;53.068;6.572;2023-01-05T13:00:21;21.80;;;2.00;;
54831;SDS011;40730;53.068;6.572;2023-01-05T13:05:21;14.52;;;2.10;;
54831;SDS011;40730;53.068;6.572;2023-01-05T13:07:49;18.25;;;1.50;;
54831;SDS011;40730;53.068;6.572;2023-01-05T13:10:32;20.30;;;1.80;;
54831;SDS011;40730;53.068;6.572;2023-01-05T13:13:10;15.27;;;1.58;;
54831;SDS011;40730;53.068;6.572;2023-01-05T13:15:52;15.45;;;2.20;;
54831;SDS011;40730;53.068;6.572;2023-01-05T13:18:38;13.23;;;1.35;;
54831;SDS011;40730;53.068;6.572;2023-01-05T13:21:08;13.57;;;1.38;;
54831;SDS011;40730;53.068;6.572;2023-01-05T13:23:36;10.90;;;1.88;;
54831;SDS011;40730;53.068;6.572;2023-01-05T13:26:26;12.88;;;1.45;;
54831;SDS011;40730;53.068;6.572;2023-01-05T13:28:52;15.02;;;1.80;;
54831;SDS011;40730;53.068;6.572;2023-01-05T13:53:51;18.58;;;1.77;;
54831;SDS011;40730;53.068;6.572;2023-01-05T13:56:45;19.92;;;1.60;;
54831;SDS011;40730;53.068;6.572;2023-01-05T14:01:45;17.67;;;1.52;;
54831;SDS011;40730;53.068;6.572;2023-01-05T14:04:18;12.95;;;2.22;;
54831;SDS011;40730;53.068;6.572;2023-01-05T14:06:46;24.23;;;2.40;;
54831;SDS011;40730;53.068;6.572;2023-01-05T14:31:34;21.20;;;1.85;;
54831;SDS011;40730;53.068;6.572;2023-01-05T14:34:23;28.98;;;3.15;;
54831;SDS011;40730;53.068;6.572;2023-01-05T14:37:33;23.20;;;2.40;;
54831;SDS011;40730;53.068;6.572;2023-01-05T14:49:18;28.58;;;3.17;;
54831;SDS011;40730;53.068;6.572;2023-01-05T14:56:23;28.67;;;3.10;;
54831;SDS011;40730;53.068;6.572;2023-01-05T14:59:25;27.20;;;2.70;;
54831;SDS011;40730;53.068;6.572;2023-01-05T15:02:25;27.38;;;3.17;;
54831;SDS011;40730;53.068;6.572;2023-01-05T15:05:29;21.35;;;1.75;;
54831;SDS011;40730;53.068;6.572;2023-01-05T15:14:22;26.92;;;2.20;;
54831;SDS011;40730;53.068;6.572;2023-01-05T15:34:19;24.05;;;3.10;;
54831;SDS011;40730;53.068;6.572;2023-01-05T15:37:42;27.17;;;2.85;;
54831;SDS011;40730;53.068;6.572;2023-01-05T15:43:55;26.25;;;2.50;;
54831;SDS011;40730;53.068;6.572;2023-01-05T15:46:58;23.90;;;3.03;;
54831;SDS011;40730;53.068;6.572;2023-01-05T15:50:24;21.80;;;3.00;;
54831;SDS011;40730;53.068;6.572;2023-01-05T15:53:03;24.48;;;2.85;;
54831;SDS011;40730;53.068;6.572;2023-01-05T15:59:52;28.80;;;3.97;;
54831;SDS011;40730;53.068;6.572;2023-01-05T16:06:07;23.88;;;3.15;;
54831;SDS011;40730;53.068;6.572;2023-01-05T16:08:52;26.63;;;2.25;;
54831;SDS011;40730;53.068;6.572;2023-01-05T16:11:43;28.48;;;4.72;;
54831;SDS011;40730;53.068;6.572;2023-01-05T16:15:01;28.48;;;2.67;;
54831;SDS011;40730;53.068;6.572;2023-01-05T16:18:06;28.48;;;3.53;;
54831;SDS011;40730;53.068;6.572;2023-01-05T16:21:37;27.70;;;2.42;;
54831;SDS011;40730;53.068;6.572;2023-01-05T16:24:21;19.45;;;2.65;;
54831;SDS011;40730;53.068;6.572;2023-01-05T16:27:13;26.98;;;3.70;;
54831;SDS011;40730;53.068;6.572;2023-01-05T16:30:27;32.15;;;4.30;;
54831;SDS011;40730;53.068;6.572;2023-01-05T16:34:30;28.33;;;3.38;;
54831;SDS011;40730;53.068;6.572;2023-01-05T16:37:05;30.13;;;3.78;;
54831;SDS011;40730;53.068;6.572;2023-01-05T16:40:19;26.35;;;2.83;;
54831;SDS011;40730;53.068;6.572;2023-01-05T16:43:30;27.20;;;3.67;;
54831;SDS011;40730;53.068;6.572;2023-01-05T16:46:27;25.83;;;3.92;;
54831;SDS011;40730;53.068;6.572;2023-01-05T16:49:59;22.13;;;3.40;;
54831;SDS011;40730;53.068;6.572;2023-01-05T16:53:13;30.42;;;3.10;;
54831;SDS011;40730;53.068;6.572;2023-01-05T17:00:46;25.05;;;3.38;;
54831;SDS011;40730;53.068;6.572;2023-01-05T17:03:31;35.63;;;4.05;;
54831;SDS011;40730;53.068;6.572;2023-01-05T17:09:01;34.75;;;3.90;;
54831;SDS011;40730;53.068;6.572;2023-01-05T17:12:02;36.27;;;3.50;;
54831;SDS011;40730;53.068;6.572;2023-01-05T17:15:17;36.40;;;4.43;;
54831;SDS011;40730;53.068;6.572;2023-01-05T17:17:55;37.30;;;5.32;;
54831;SDS011;40730;53.068;6.572;2023-01-05T17:20:55;30.95;;;4.15;;
54831;SDS011;40730;53.068;6.572;2023-01-05T17:23:52;36.60;;;4.55;;
54831;SDS011;40730;53.068;6.572;2023-01-05T17:26:33;37.75;;;4.15;;
54831;SDS011;40730;53.068;6.572;2023-01-05T17:29:24;34.80;;;5.23;;
54831;SDS011;40730;53.068;6.572;2023-01-05T17:32:13;31.50;;;5.57;;
54831;SDS011;40730;53.068;6.572;2023-01-05T17:35:08;26.27;;;4.18;;
54831;SDS011;40730;53.068;6.572;2023-01-05T17:38:33;39.65;;;5.85;;
54831;SDS011;40730;53.068;6.572;2023-01-05T17:45:17;33.65;;;4.75;;
54831;SDS011;40730;53.068;6.572;2023-01-05T17:48:10;35.47;;;5.15;;
54831;SDS011;40730;53.068;6.572;2023-01-05T17:51:28;33.75;;;5.40;;
54831;SDS011;40730;53.068;6.572;2023-01-05T17:54:28;39.55;;;6.38;;
54831;SDS011;40730;53.068;6.572;2023-01-05T17:57:33;30.52;;;4.95;;
54831;SDS011;40730;53.068;6.572;2023-01-05T18:00:51;43.78;;;6.32;;
54831;SDS011;40730;53.068;6.572;2023-01-05T18:03:46;44.60;;;7.68;;
54831;SDS011;40730;53.068;6.572;2023-01-05T18:06:24;37.90;;;6.75;;
54831;SDS011;40730;53.068;6.572;2023-01-05T18:09:04;35.08;;;5.90;;
54831;SDS011;40730;53.068;6.572;2023-01-05T18:11:51;51.05;;;5.63;;
54831;SDS011;40730;53.068;6.572;2023-01-05T18:15:06;42.95;;;5.97;;
54831;SDS011;40730;53.068;6.572;2023-01-05T18:17:50;39.75;;;13.43;;
54831;SDS011;40730;53.068;6.572;2023-01-05T18:20:40;37.10;;;6.60;;
54831;SDS011;40730;53.068;6.572;2023-01-05T18:23:54;41.75;;;6.82;;
54831;SDS011;40730;53.068;6.572;2023-01-05T18:26:47;43.03;;;6.78;;